Time;durP1;ratioP1;P1;durP2;ratioP2;P2;SDS_P1;SDS_P2;PMS_P1;PMS_P2;Temp;Humidity;BMP_temperature;BMP_pressure;BME280_temperature;BME280_humidity;BME280_pressure;Samples;Min_cycle;Max_cycle;Signal;HPM_P1;HPM_P2
2021/12/12 00:00:26;;;;;;;8.70;4.93;;;;;;;-149.78;100.00;50440.16;5134329;27;20367;-69
2021/12/12 00:02:57;;;;;;;11.18;5.30;;;;;;;-149.78;100.00;50459.72;5077329;28;20049;-67
2021/12/12 00:05:29;;;;;;;9.48;4.82;;;;;;;-149.78;100.00;50479.28;5133811;27;20470;-68
2021/12/12 00:07:55;;;;;;;11.35;5.25;;;;;;;-149.78;100.00;50491.00;5133766;27;20019;-68
2021/12/12 00:10:26;;;;;;;12.70;5.38;;;;;;;-149.78;100.00;50498.81;5133791;28;20031;-68
2021/12/12 00:12:56;;;;;;;10.93;5.68;;;;;;;-149.78;100.00;50491.00;5133765;28;20063;-67
2021/12/12 00:15:22;;;;;;;14.65;5.93;;;;;;;-149.78;100.00;50481.22;5133767;28;20072;-68
2021/12/12 00:17:48;;;;;;;13.73;5.43;;;;;;;-149.78;100.00;50494.91;5133535;27;20031;-68
2021/12/12 00:20:21;;;;;;;9.77;4.85;;;;;;;-149.78;100.00;50471.44;5133727;28;20038;-68
2021/12/12 00:22:47;;;;;;;10.35;5.25;;;;;;;-149.78;100.00;50459.72;5133971;28;20429;-68
2021/12/12 00:25:13;;;;;;;11.95;6.30;;;;;;;-149.78;100.00;50494.91;5134079;28;20126;-67
2021/12/12 00:27:39;;;;;;;10.52;5.00;;;;;;;-149.78;100.00;50475.34;5134007;28;20038;-68
2021/12/12 00:30:09;;;;;;;13.30;5.63;;;;;;;-149.78;100.00;50483.19;5134128;28;20482;-68
2021/12/12 00:32:37;;;;;;;9.23;4.53;;;;;;;-149.78;100.00;50487.09;5133957;27;20111;-68
2021/12/12 00:35:07;;;;;;;12.10;5.30;;;;;;;-149.78;100.00;50459.72;5115622;28;20369;-67
2021/12/12 00:37:32;;;;;;;9.15;4.63;;;;;;;-149.78;100.00;50475.34;5133798;27;20035;-68
2021/12/12 00:40:29;;;;;;;11.00;5.30;;;;;;;-149.78;100.00;50459.72;5134036;28;20073;-67
2021/12/12 00:42:58;;;;;;;11.18;5.95;;;;;;;-149.78;100.00;50498.81;5114193;27;20085;-67
2021/12/12 00:45:25;;;;;;;9.57;5.18;;;;;;;-149.78;100.00;50467.53;5137964;27;20027;-68
2021/12/12 00:47:51;;;;;;;10.95;5.53;;;;;;;-149.78;100.00;50502.75;5119469;27;20386;-68
2021/12/12 00:50:28;;;;;;;10.25;5.60;;;;;;;-149.78;100.00;50487.09;5137934;27;20037;-68
2021/12/12 00:52:54;;;;;;;13.15;5.40;;;;;;;-149.78;100.00;50500.78;5137808;27;20034;-68
2021/12/12 00:55:21;;;;;;;8.68;5.00;;;;;;;-149.78;100.00;50465.56;5137633;27;20056;-68
2021/12/12 00:57:51;;;;;;;9.55;4.82;;;;;;;-149.78;100.00;50477.31;5137741;27;20023;-68
2021/12/12 01:00:20;;;;;;;9.00;5.28;;;;;;;-149.78;100.00;50498.81;5137637;27;20370;-68
2021/12/12 01:02:47;;;;;;;11.18;5.00;;;;;;;-149.78;100.00;50518.38;5137421;27;20390;-68
2021/12/12 01:05:13;;;;;;;9.02;5.10;;;;;;;-149.78;100.00;50534.03;5119405;27;20076;-69
2021/12/12 01:07:42;;;;;;;9.82;4.55;;;;;;;-149.78;100.00;50475.34;5119161;27;20034;-68
2021/12/12 01:10:20;;;;;;;11.23;4.55;;;;;;;-149.78;100.00;50487.09;5119115;27;20513;-68
2021/12/12 01:12:47;;;;;;;7.07;4.00;;;;;;;-149.78;100.00;50481.22;5137399;27;20046;-69
2021/12/12 01:15:37;;;;;;;9.23;4.60;;;;;;;-149.78;100.00;50467.53;5137268;27;20035;-69
2021/12/12 01:18:09;;;;;;;9.75;5.10;;;;;;;-149.78;100.00;50518.38;5118968;27;20080;-69
2021/12/12 01:20:50;;;;;;;8.18;4.55;;;;;;;-149.78;100.00;50514.47;5137181;27;20027;-69
2021/12/12 01:23:28;;;;;;;7.60;4.20;;;;;;;-149.78;100.00;50506.66;5136922;27;20031;-69
2021/12/12 01:25:55;;;;;;;9.15;4.60;;;;;;;-149.78;100.00;50496.88;5137039;27;20042;-68
2021/12/12 01:28:27;;;;;;;7.00;4.25;;;;;;;-149.78;100.00;50514.47;5137026;27;20435;-68
2021/12/12 01:30:54;;;;;;;;;;;;;;;-149.78;100.00;50516.44;5137354;27;20034;-68
2021/12/12 01:33:34;;;;;;;7.28;3.80;;;;;;;-149.78;100.00;50506.66;5136564;27;20002;-68
2021/12/12 01:36:26;;;;;;;6.68;3.78;;;;;;;-149.78;100.00;50487.09;5136780;27;20035;-68
2021/12/12 01:38:56;;;;;;;5.90;3.45;;;;;;;-149.78;100.00;50504.69;5136952;27;20084;-69
2021/12/12 01:41:33;;;;;;;5.47;3.08;;;;;;;-149.78;100.00;50508.59;5118977;27;20039;-68
2021/12/12 01:44:11;;;;;;;4.97;3.00;;;;;;;-149.78;100.00;50483.19;5136519;27;20030;-68
2021/12/12 01:46:45;;;;;;;4.75;2.92;;;;;;;-149.78;100.00;50483.19;5136503;27;20031;-68
2021/12/12 01:49:20;;;;;;;4.50;3.00;;;;;;;-149.78;100.00;50491.00;5136541;27;20046;-68
2021/12/12 01:51:49;;;;;;;4.53;2.45;;;;;;;-149.78;100.00;50487.09;5136558;27;20222;-68
2021/12/12 01:54:21;;;;;;;4.00;2.55;;;;;;;-149.78;100.00;50506.66;5136229;27;20038;-69
2021/12/12 01:56:54;;;;;;;3.58;2.17;;;;;;;-149.78;100.00;50467.53;5135765;27;20035;-68
2021/12/12 01:59:28;;;;;;;3.78;2.00;;;;;;;-149.78;100.00;50502.75;5136271;27;20038;-69
2021/12/12 02:02:09;;;;;;;3.00;1.83;;;;;;;-149.78;100.00;50494.91;5117630;27;20389;-68
2021/12/12 02:04:41;;;;;;;2.33;2.00;;;;;;;-149.78;100.00;50514.47;5117899;27;20045;-68
2021/12/12 02:07:10;;;;;;;3.70;1.95;;;;;;;-149.78;100.00;50510.56;5136218;27;20165;-68
2021/12/12 02:09:36;;;;;;;2.88;1.70;;;;;;;-149.78;100.00;50496.88;5135927;27;20609;-69
2021/12/12 02:12:04;;;;;;;3.30;2.10;;;;;;;-149.78;100.00;50500.78;5136136;27;20058;-67
2021/12/12 02:14:35;;;;;;;2.40;1.80;;;;;;;-149.78;100.00;50506.66;5136064;27;20039;-68
2021/12/12 02:17:14;;;;;;;4.90;2.40;;;;;;;-149.78;100.00;50489.03;5135755;27;20027;-68
2021/12/12 02:20:05;;;;;;;2.35;1.90;;;;;;;-149.78;100.00;50537.94;5135912;27;20035;-69
2021/12/12 02:36:23;;;;;;;3.20;2.05;;;;;;;-149.78;100.00;50494.91;5113445;27;20053;-69
2021/12/12 02:38:52;;;;;;;4.00;2.17;;;;;;;-149.78;100.00;50518.38;5136126;27;20027;-69
2021/12/12 02:41:19;;;;;;;2.60;1.98;;;;;;;-149.78;100.00;50496.88;5135793;27;20035;-69
2021/12/12 02:43:49;;;;;;;3.50;2.53;;;;;;;-149.78;100.00;50498.81;5135398;27;20122;-69
2021/12/12 02:46:18;;;;;;;4.90;2.20;;;;;;;-149.78;100.00;50471.44;5135677;27;20546;-69
2021/12/12 02:48:45;;;;;;;3.15;2.22;;;;;;;-149.78;100.00;50489.03;5135486;27;20038;-68
2021/12/12 02:51:15;;;;;;;3.45;2.22;;;;;;;-149.78;100.00;50494.91;5135683;27;20031;-68
2021/12/12 02:53:56;;;;;;;5.25;2.40;;;;;;;-149.78;100.00;50481.22;5135556;27;20028;-69
2021/12/12 02:56:28;;;;;;;3.80;2.30;;;;;;;-149.78;100.00;50506.66;5135301;27;20063;-69
2021/12/12 02:58:55;;;;;;;3.85;2.42;;;;;;;-149.78;100.00;50498.81;5135255;27;20062;-69
2021/12/12 03:01:20;;;;;;;2.88;2.25;;;;;;;-149.78;100.00;50491.00;5135384;27;20165;-69
2021/12/12 03:03:48;;;;;;;3.55;2.60;;;;;;;-149.78;100.00;50510.56;5135142;27;20066;-69
2021/12/12 03:06:19;;;;;;;2.88;2.17;;;;;;;-149.78;100.00;50492.97;5116695;27;20031;-69
2021/12/12 03:08:49;;;;;;;3.13;2.40;;;;;;;-149.78;100.00;50483.19;5134968;27;20038;-69
2021/12/12 03:11:15;;;;;;;3.72;2.42;;;;;;;-149.78;100.00;50449.94;5116979;27;20031;-69
2021/12/12 03:13:41;;;;;;;3.47;2.40;;;;;;;-149.78;100.00;50479.28;5135165;27;20023;-69
2021/12/12 03:16:08;;;;;;;4.20;2.60;;;;;;;-149.78;100.00;50473.41;5135106;27;20031;-69
2021/12/12 03:18:41;;;;;;;3.72;2.58;;;;;;;-149.78;100.00;50498.81;5110491;27;20061;-69
2021/12/12 03:21:19;;;;;;;4.43;2.58;;;;;;;-149.78;100.00;50494.91;5134844;27;20046;-69
2021/12/12 03:23:51;;;;;;;3.38;2.33;;;;;;;-149.78;100.00;50510.56;5134703;27;20043;-69
2021/12/12 03:26:19;;;;;;;;;;;;;;;-149.78;100.00;50516.44;5116914;27;20031;-69
2021/12/12 03:28:48;;;;;;;3.65;2.40;;;;;;;-149.78;100.00;50514.47;5116456;27;20382;-69
2021/12/12 03:31:22;;;;;;;4.32;2.00;;;;;;;-149.78;100.00;50534.03;5134440;27;20027;-69
2021/12/12 03:33:47;;;;;;;2.47;1.85;;;;;;;-149.78;100.00;50479.28;5134389;27;20798;-69
2021/12/12 03:36:15;;;;;;;3.08;1.92;;;;;;;-149.78;100.00;50481.22;5138355;27;20154;-69
2021/12/12 03:38:44;;;;;;;2.38;1.60;;;;;;;-149.78;100.00;50483.19;5133352;27;20474;-69
2021/12/12 03:41:14;;;;;;;2.28;1.77;;;;;;;-149.78;100.00;50491.00;5134069;27;20019;-69
2021/12/12 03:43:41;;;;;;;2.83;1.90;;;;;;;-149.78;100.00;50459.72;5133987;27;20035;-69
2021/12/12 03:46:10;;;;;;;2.17;1.77;;;;;;;-149.78;100.00;50532.06;5115698;27;20127;-69
2021/12/12 03:48:39;;;;;;;2.28;1.70;;;;;;;-149.78;100.00;50502.75;5133936;27;20481;-69
2021/12/12 03:51:08;;;;;;;3.33;1.77;;;;;;;-149.78;100.00;50489.03;5133944;27;20466;-69
2021/12/12 03:53:37;;;;;;;2.35;1.50;;;;;;;-149.78;100.00;50504.69;5115713;28;20035;-69
2021/12/12 03:56:05;;;;;;;2.33;1.77;;;;;;;-149.78;100.00;50487.09;5134138;27;20038;-69
2021/12/12 03:58:31;;;;;;;2.20;1.70;;;;;;;-149.78;100.00;50498.81;5134271;27;20046;-69
2021/12/12 04:01:01;;;;;;;2.58;1.80;;;;;;;-149.78;100.00;50506.66;5134435;27;20035;-69
2021/12/12 04:03:27;;;;;;;2.17;1.73;;;;;;;-149.78;100.00;50504.69;5134249;27;20430;-69
2021/12/12 04:06:09;;;;;;;3.63;1.77;;;;;;;-149.78;100.00;50479.28;5134348;28;20035;-69
2021/12/12 04:08:42;;;;;;;3.05;1.85;;;;;;;-149.78;100.00;50483.19;5134422;28;20462;-69
2021/12/12 04:11:15;;;;;;;2.38;1.88;;;;;;;-149.78;100.00;50491.00;5134209;28;20467;-69
2021/12/12 04:13:43;;;;;;;5.13;1.77;;;;;;;-149.78;100.00;50512.50;5134200;27;20031;-69
2021/12/12 04:16:10;;;;;;;2.03;1.52;;;;;;;-149.78;100.00;50537.94;5134078;28;20038;-69
2021/12/12 04:18:37;;;;;;;3.30;2.03;;;;;;;-149.78;100.00;50500.78;5140796;27;20024;-69
2021/12/12 04:21:03;;;;;;;1.80;1.42;;;;;;;-149.78;100.00;50494.91;5138357;27;20076;-69
2021/12/12 04:23:30;;;;;;;2.80;2.00;;;;;;;-149.78;100.00;50502.75;5137878;27;20501;-69
2021/12/12 04:26:21;;;;;;;2.20;1.63;;;;;;;-149.78;100.00;50463.63;5138351;27;20031;-68
2021/12/12 04:29:01;;;;;;;2.67;1.80;;;;;;;-149.78;100.00;50504.69;5138158;27;20027;-68
2021/12/12 04:31:28;;;;;;;2.38;1.90;;;;;;;-149.78;100.00;50487.09;5137587;27;20367;-68
2021/12/12 04:33:54;;;;;;;2.75;1.92;;;;;;;-149.78;100.00;50492.97;5137828;27;20415;-68
2021/12/12 04:36:32;;;;;;;2.35;1.63;;;;;;;-149.78;100.00;50514.47;5138254;27;20441;-68
2021/12/12 04:39:19;;;;;;;2.08;1.40;;;;;;;-149.78;100.00;50506.66;5138079;27;20438;-68
2021/12/12 04:41:48;;;;;;;2.13;1.40;;;;;;;-149.78;100.00;50494.91;5137491;27;20091;-68
2021/12/12 04:44:21;;;;;;;1.98;1.40;;;;;;;-149.78;100.00;50494.91;5137909;27;20027;-68
2021/12/12 04:49:56;;;;;;;1.52;1.13;;;;;;;-149.78;100.00;50520.34;5137832;27;20033;-68
2021/12/12 04:52:46;;;;;;;1.35;1.13;;;;;;;-149.78;100.00;50440.16;5137421;27;20031;-68
2021/12/12 04:55:20;;;;;;;1.38;1.08;;;;;;;-149.78;100.00;50508.59;5137735;27;20077;-68
2021/12/12 04:58:01;;;;;;;1.15;1.05;;;;;;;-149.78;100.00;50518.38;5137737;27;20382;-68
2021/12/12 05:00:58;;;;;;;1.63;1.20;;;;;;;-149.78;100.00;50506.66;5137708;27;20033;-68
2021/12/12 05:03:45;;;;;;;1.48;1.00;;;;;;;-149.78;100.00;50549.69;5137515;27;20031;-68
2021/12/12 05:06:18;;;;;;;1.52;1.00;;;;;;;-149.78;100.00;50491.00;5137347;27;20122;-68
2021/12/12 05:08:48;;;;;;;1.50;1.20;;;;;;;-149.78;100.00;50518.38;5137621;27;20386;-68
2021/12/12 05:11:22;;;;;;;1.00;0.90;;;;;;;-149.78;100.00;50510.56;5137299;27;20039;-68
2021/12/12 05:13:56;;;;;;;2.25;1.10;;;;;;;-149.78;100.00;50502.75;5137208;27;20038;-68
2021/12/12 05:16:31;;;;;;;1.10;0.90;;;;;;;-149.78;100.00;50496.88;5137255;27;20076;-68
2021/12/12 05:19:05;;;;;;;2.55;1.20;;;;;;;-149.78;100.00;50494.91;5137327;27;20484;-68
2021/12/12 05:21:36;;;;;;;1.27;1.13;;;;;;;-149.78;100.00;50516.44;5137416;27;20042;-68
2021/12/12 05:24:07;;;;;;;2.22;1.00;;;;;;;-149.78;100.00;50498.81;5136789;27;20051;-68
2021/12/12 05:26:36;;;;;;;1.60;1.38;;;;;;;-149.78;100.00;50510.56;5119110;27;20458;-68
2021/12/12 05:29:20;;;;;;;1.80;1.30;;;;;;;-149.78;100.00;50471.44;5137021;27;20045;-68
2021/12/12 05:31:48;;;;;;;1.70;1.30;;;;;;;-149.78;100.00;50498.81;5136990;27;20039;-68
2021/12/12 05:34:17;;;;;;;1.45;1.10;;;;;;;-149.78;100.00;50498.81;5137062;27;20474;-68
2021/12/12 05:36:45;;;;;;;2.50;1.27;;;;;;;-149.78;100.00;50483.19;5137061;27;20485;-68
2021/12/12 05:39:11;;;;;;;1.38;1.13;;;;;;;-149.78;100.00;50494.91;5136735;27;20035;-68
2021/12/12 05:41:37;;;;;;;0.98;0.90;;;;;;;-149.78;100.00;50520.34;5136524;27;20035;-68
2021/12/12 05:44:05;;;;;;;1.33;1.23;;;;;;;-149.78;100.00;50522.28;5136383;27;20035;-68
2021/12/12 05:46:30;;;;;;;4.28;1.80;;;;;;;-149.78;100.00;50516.44;5136323;27;20035;-68
2021/12/12 05:48:59;;;;;;;3.88;1.30;;;;;;;-149.78;100.00;50475.34;5136269;27;20027;-68
2021/12/12 05:51:26;;;;;;;1.63;1.20;;;;;;;-149.78;100.00;50534.03;5136437;27;20027;-68
2021/12/12 05:53:53;;;;;;;1.77;1.17;;;;;;;-149.78;100.00;50537.94;5136309;27;20023;-68
2021/12/12 05:56:23;;;;;;;2.22;1.55;;;;;;;-149.78;100.00;50498.81;5117984;27;20027;-68
2021/12/12 05:58:50;;;;;;;5.50;2.50;;;;;;;-149.78;100.00;50510.56;5100747;27;20129;-68
2021/12/12 06:01:16;;;;;;;8.90;3.70;;;;;;;-149.78;100.00;50522.28;5136075;27;20039;-68
2021/12/12 06:03:42;;;;;;;8.13;3.53;;;;;;;-149.78;100.00;50502.75;5117384;27;20041;-68
2021/12/12 06:06:11;;;;;;;10.50;3.80;;;;;;;-149.78;100.00;50485.13;5135968;27;20128;-68
2021/12/12 06:08:40;;;;;;;12.93;5.45;;;;;;;-149.78;100.00;50518.38;5117713;27;20563;-68
2021/12/12 06:11:06;;;;;;;19.40;6.82;;;;;;;-149.78;100.00;50504.69;5136253;27;20031;-68
2021/12/12 06:13:34;;;;;;;21.08;7.45;;;;;;;-149.78;100.00;50510.56;5117700;27;20058;-68
2021/12/12 06:16:01;;;;;;;29.23;9.05;;;;;;;-149.78;100.00;50492.97;5135864;27;20072;-68
2021/12/12 06:18:34;;;;;;;25.02;8.77;;;;;;;-149.78;100.00;50502.75;5135711;27;20042;-68
2021/12/12 06:21:00;;;;;;;24.60;8.07;;;;;;;-149.78;100.00;50545.75;5135801;27;20027;-68
2021/12/12 06:23:27;;;;;;;23.95;8.90;;;;;;;-149.78;100.00;50498.81;5135771;27;20061;-67
2021/12/12 06:25:54;;;;;;;22.25;7.07;;;;;;;-149.78;100.00;50518.38;5136028;27;20031;-69
2021/12/12 06:28:27;;;;;;;18.02;5.47;;;;;;;-149.78;100.00;50530.13;5135916;27;20172;-69
2021/12/12 06:30:54;;;;;;;15.38;5.18;;;;;;;-149.78;100.00;50543.81;5135503;27;20049;-69
2021/12/12 06:33:20;;;;;;;11.70;4.13;;;;;;;-149.78;100.00;50526.22;5135648;27;20493;-68
2021/12/12 06:35:47;;;;;;;5.70;2.42;;;;;;;-149.78;100.00;50516.44;5135754;27;20105;-68
2021/12/12 06:38:14;;;;;;;6.78;2.40;;;;;;;-149.78;100.00;50510.56;5135680;27;20389;-68
2021/12/12 06:40:42;;;;;;;2.88;1.48;;;;;;;-149.78;100.00;50530.13;5135373;27;20038;-69
2021/12/12 06:43:12;;;;;;;3.17;1.50;;;;;;;-149.78;100.00;50508.59;5135390;27;20024;-68
2021/12/12 06:45:38;;;;;;;2.55;1.52;;;;;;;-149.78;100.00;50494.91;5135594;27;20047;-68
2021/12/12 06:48:10;;;;;;;2.15;1.23;;;;;;;-149.78;100.00;50549.69;5135587;27;20042;-68
2021/12/12 06:50:39;;;;;;;2.45;1.30;;;;;;;-149.78;100.00;50487.09;5135688;27;20035;-68
2021/12/12 06:53:05;;;;;;;3.67;1.63;;;;;;;-149.78;100.00;50508.59;5135469;27;20463;-68
2021/12/12 06:55:32;;;;;;;3.08;1.83;;;;;;;-149.78;100.00;50498.81;5128706;27;20037;-68
2021/12/12 06:57:59;;;;;;;2.33;1.58;;;;;;;-149.78;100.00;50471.44;5137587;27;20034;-68
2021/12/12 07:00:27;;;;;;;2.63;1.77;;;;;;;-149.78;100.00;50494.91;5134906;27;20031;-68
2021/12/12 07:02:53;;;;;;;3.10;1.63;;;;;;;-149.78;100.00;50510.56;5141414;27;20035;-68
2021/12/12 07:05:23;;;;;;;2.00;1.42;;;;;;;-149.78;100.00;50502.75;5130869;27;20035;-68
2021/12/12 07:07:50;;;;;;;2.40;1.58;;;;;;;-149.78;100.00;50492.97;5146337;27;20030;-68
2021/12/12 07:10:19;;;;;;;3.15;1.70;;;;;;;-149.78;100.00;50487.09;5119705;27;20041;-69
2021/12/12 07:12:53;;;;;;;3.10;1.65;;;;;;;-149.78;100.00;50514.47;5138639;27;20015;-69
2021/12/12 07:15:19;;;;;;;3.65;2.13;;;;;;;-149.78;100.00;50487.09;5144839;27;20031;-69
2021/12/12 07:17:46;;;;;;;3.80;2.15;;;;;;;-149.78;100.00;50518.38;5146682;27;20106;-69
2021/12/12 07:20:12;;;;;;;4.00;2.13;;;;;;;-149.78;100.00;50518.38;5150565;27;20385;-69
2021/12/12 07:22:39;;;;;;;5.05;2.42;;;;;;;-149.78;100.00;50502.75;5146331;27;20562;-69
2021/12/12 07:25:07;;;;;;;3.47;2.10;;;;;;;-149.78;100.00;50498.81;5143173;27;20067;-69
2021/12/12 07:27:32;;;;;;;4.97;2.60;;;;;;;-149.78;100.00;50494.91;5122210;27;20027;-69
2021/12/12 07:29:58;;;;;;;3.33;2.25;;;;;;;-149.78;100.00;50492.97;5144035;27;20034;-69
2021/12/12 07:32:26;;;;;;;3.92;2.10;;;;;;;-149.78;100.00;50491.00;5141512;27;20114;-69
2021/12/12 07:34:54;;;;;;;3.75;2.25;;;;;;;-149.78;100.00;50502.75;5139134;27;20432;-68
2021/12/12 07:37:20;;;;;;;3.30;1.80;;;;;;;-149.78;100.00;50553.59;5136671;27;20482;-68
2021/12/12 07:39:47;;;;;;;4.20;2.50;;;;;;;-149.78;100.00;50547.72;5138022;27;20043;-68
2021/12/12 07:42:15;;;;;;;5.22;3.03;;;;;;;-149.78;100.00;50483.19;5142977;27;20046;-68
2021/12/12 07:44:43;;;;;;;4.03;2.33;;;;;;;-149.78;100.00;50506.66;5137406;27;20118;-68
2021/12/12 07:47:11;;;;;;;5.07;2.47;;;;;;;-149.78;100.00;50502.75;5131243;27;20034;-68
2021/12/12 07:49:42;;;;;;;4.72;1.90;;;;;;;-149.78;100.00;50483.19;5112790;27;20031;-68
2021/12/12 07:52:11;;;;;;;3.28;1.80;;;;;;;-149.78;100.00;50485.13;5143235;27;20035;-68
2021/12/12 07:54:37;;;;;;;4.03;1.88;;;;;;;-149.78;100.00;50498.81;5144787;27;20058;-67
2021/12/12 07:57:05;;;;;;;4.25;1.88;;;;;;;-149.78;100.00;50502.75;5131957;27;20034;-67
2021/12/12 07:59:34;;;;;;;3.22;1.77;;;;;;;-149.78;100.00;50485.13;5137605;27;20054;-67
2021/12/12 08:02:02;;;;;;;3.40;1.90;;;;;;;-149.78;100.00;50518.38;5103349;27;20034;-67
2021/12/12 08:04:30;;;;;;;3.08;1.63;;;;;;;-149.78;100.00;50487.09;5130559;27;20040;-67
2021/12/12 08:06:56;;;;;;;2.78;1.80;;;;;;;-149.78;100.00;50510.56;5133337;27;20027;-66
2021/12/12 08:09:23;;;;;;;2.28;1.50;;;;;;;-149.78;100.00;50510.56;5134508;27;20035;-66
2021/12/12 08:11:49;;;;;;;2.92;1.90;;;;;;;-149.78;100.00;50561.41;5135393;27;20031;-69
2021/12/12 08:14:21;;;;;;;2.83;1.90;;;;;;;-149.78;100.00;50494.91;5138656;27;20076;-68
2021/12/12 08:16:48;;;;;;;2.83;2.08;;;;;;;-149.78;100.00;50481.22;5131854;27;20046;-65
2021/12/12 08:19:16;;;;;;;3.50;2.33;;;;;;;-149.78;100.00;50506.66;5139110;27;20164;-66
2021/12/12 08:21:42;;;;;;;3.70;1.98;;;;;;;-149.78;100.00;50506.66;5140409;27;20027;-66
2021/12/12 08:24:10;;;;;;;3.42;2.05;;;;;;;-149.78;100.00;50518.38;5134770;27;20386;-66
2021/12/12 08:26:40;;;;;;;4.97;2.30;;;;;;;-149.78;100.00;50469.50;5138291;27;20035;-66
2021/12/12 08:29:08;;;;;;;3.88;2.10;;;;;;;-149.78;100.00;50514.47;5134011;27;20110;-67
2021/12/12 08:31:35;;;;;;;3.45;1.65;;;;;;;-149.78;100.00;50510.56;5148140;27;20122;-67
2021/12/12 08:34:08;;;;;;;3.25;1.75;;;;;;;-149.78;100.00;50516.44;5133625;28;20068;-65
2021/12/12 08:36:37;;;;;;;3.10;1.95;;;;;;;-149.78;100.00;50494.91;5133603;27;20031;-68
2021/12/12 08:39:07;;;;;;;5.43;2.42;;;;;;;-149.78;100.00;50514.47;5132822;27;20031;-67
2021/12/12 08:41:35;;;;;;;3.90;2.20;;;;;;;-149.78;100.00;50514.47;5142749;27;20034;-70
2021/12/12 08:44:04;;;;;;;3.08;1.75;;;;;;;-149.78;100.00;50494.91;5149730;27;20024;-69
2021/12/12 08:46:31;;;;;;;3.45;1.80;;;;;;;-149.78;100.00;50508.59;5146775;27;20031;-69
2021/12/12 08:48:59;;;;;;;2.60;1.65;;;;;;;-149.78;100.00;50475.34;5150238;27;20102;-69
2021/12/12 08:51:31;;;;;;;4.20;1.90;;;;;;;-149.78;100.00;50502.75;5144360;27;20084;-70
2021/12/12 08:54:13;;;;;;;3.20;1.73;;;;;;;-149.78;100.00;50504.69;5147509;27;20538;-69
2021/12/12 08:56:46;;;;;;;4.65;2.13;;;;;;;-149.78;100.00;50522.28;5147615;27;20030;-69
2021/12/12 08:59:23;;;;;;;3.13;2.03;;;;;;;-149.78;100.00;50447.97;5148911;27;20023;-68
2021/12/12 09:01:52;;;;;;;3.33;2.08;;;;;;;-149.78;100.00;50471.44;5151732;27;20031;-69
2021/12/12 09:04:18;;;;;;;3.15;1.80;;;;;;;-149.78;100.00;50494.91;5139621;27;20492;-70
2021/12/12 09:06:57;;;;;;;2.55;1.60;;;;;;;-149.78;100.00;50502.75;5144260;27;20110;-70
2021/12/12 09:09:28;;;;;;;3.05;1.70;;;;;;;-149.78;100.00;50487.09;5147382;27;20027;-67
2021/12/12 09:12:08;;;;;;;3.38;1.73;;;;;;;-149.78;100.00;50492.97;5150712;27;20369;-67
2021/12/12 09:14:47;;;;;;;2.90;1.90;;;;;;;-149.78;100.00;50510.56;5137373;27;20027;-67
2021/12/12 09:17:35;;;;;;;2.97;1.60;;;;;;;-149.78;100.00;50494.91;5141816;27;20019;-67
2021/12/12 09:20:34;;;;;;;3.85;1.80;;;;;;;-149.78;100.00;50483.19;5132588;27;20110;-69
2021/12/12 09:23:12;;;;;;;3.42;1.92;;;;;;;-149.78;100.00;50506.66;5130013;27;20096;-69
2021/12/12 09:25:50;;;;;;;2.17;1.48;;;;;;;-149.78;100.00;50526.22;5141889;27;20043;-68
2021/12/12 09:28:31;;;;;;;2.92;1.83;;;;;;;-149.78;100.00;50479.28;5115416;27;20030;-68
2021/12/12 09:31:02;;;;;;;2.40;1.67;;;;;;;-149.78;100.00;50514.47;5143622;27;20458;-69
2021/12/12 09:33:45;;;;;;;3.00;1.77;;;;;;;-149.78;100.00;50479.28;5145114;27;20499;-69
2021/12/12 09:36:33;;;;;;;2.25;1.60;;;;;;;-149.78;100.00;50451.88;5100695;27;20506;-69
2021/12/12 09:39:24;;;;;;;2.30;1.55;;;;;;;-149.78;100.00;50479.28;5117683;27;20536;-69
2021/12/12 09:41:59;;;;;;;4.90;1.77;;;;;;;-149.78;100.00;50491.00;5135992;27;20029;-69
2021/12/12 09:45:03;;;;;;;2.47;1.60;;;;;;;-149.78;100.00;50479.28;5144181;27;20172;-69
2021/12/12 09:51:15;;;;;;;2.45;1.50;;;;;;;-149.78;100.00;50496.88;5117930;27;20063;-69
2021/12/12 09:54:02;;;;;;;1.50;1.27;;;;;;;-149.78;100.00;50469.50;5157125;27;20027;-69
2021/12/12 09:56:56;;;;;;;2.13;1.50;;;;;;;-149.78;100.00;50479.28;5157157;27;20121;-69
2021/12/12 09:59:43;;;;;;;1.48;1.15;;;;;;;-149.78;100.00;50491.00;5156913;27;20039;-69
2021/12/12 10:02:43;;;;;;;1.50;1.30;;;;;;;-149.78;100.00;50479.28;5156761;27;20033;-70
2021/12/12 10:05:30;;;;;;;2.83;1.48;;;;;;;-149.78;100.00;50491.00;5156779;27;20041;-69
2021/12/12 10:08:16;;;;;;;1.20;1.10;;;;;;;-149.78;100.00;50496.88;5152036;27;20034;-67
2021/12/12 10:11:13;;;;;;;2.15;1.25;;;;;;;-149.78;100.00;50467.53;5141226;27;20029;-67
2021/12/12 10:13:56;;;;;;;1.85;1.23;;;;;;;-149.78;100.00;50494.91;5156374;27;20105;-69
2021/12/12 10:16:28;;;;;;;1.42;1.17;;;;;;;-149.78;100.00;50498.81;5136477;27;20027;-68
2021/12/12 10:19:01;;;;;;;2.63;1.33;;;;;;;-149.78;100.00;50473.41;5136718;27;20038;-68
2021/12/12 10:21:47;;;;;;;1.10;1.00;;;;;;;-149.78;100.00;50491.00;5136981;27;20030;-69
2021/12/12 10:24:25;;;;;;;1.20;1.10;;;;;;;-149.78;100.00;50459.72;5137980;27;20039;-69
2021/12/12 10:27:33;;;;;;;2.58;1.10;;;;;;;-149.78;100.00;50502.75;5114586;28;20031;-69
2021/12/12 10:30:21;;;;;;;1.30;0.88;;;;;;;-149.78;100.00;50498.81;5114348;27;20066;-73
2021/12/12 10:33:04;;;;;;;2.00;1.00;;;;;;;-149.78;100.00;50483.19;5113821;27;20031;-73
2021/12/12 10:35:40;;;;;;;2.25;0.90;;;;;;;-149.78;100.00;50479.28;5135599;27;20428;-72
2021/12/12 10:38:14;;;;;;;1.65;1.00;;;;;;;-149.78;100.00;50483.19;5117792;27;20038;-76
2021/12/12 10:41:03;;;;;;;0.98;0.88;;;;;;;-149.78;100.00;50489.03;5134497;27;20035;-77
2021/12/12 10:43:41;;;;;;;0.90;0.90;;;;;;;-149.78;100.00;50451.88;5135244;27;20027;-76
2021/12/12 10:46:28;;;;;;;1.00;0.90;;;;;;;-149.78;100.00;50504.69;5136048;27;20039;-76
2021/12/12 10:49:06;;;;;;;1.38;0.90;;;;;;;-149.78;100.00;50447.97;5135911;27;20516;-76
2021/12/12 10:51:43;;;;;;;1.77;0.95;;;;;;;-149.78;100.00;50494.91;5118251;27;20046;-76
2021/12/12 10:54:19;;;;;;;2.95;0.80;;;;;;;-149.78;100.00;50467.53;5100951;27;20038;-76
2021/12/12 10:57:08;;;;;;;2.45;0.80;;;;;;;-149.78;100.00;50453.84;5117871;27;20031;-76
2021/12/12 10:59:42;;;;;;;1.55;0.77;;;;;;;-149.78;100.00;50463.63;5135685;27;20031;-76
2021/12/12 11:02:13;;;;;;;0.75;0.75;;;;;;;-149.78;100.00;50506.66;5136040;27;20110;-76
2021/12/12 11:04:52;;;;;;;1.00;0.70;;;;;;;-149.78;100.00;50491.00;5135589;27;20023;-76
2021/12/12 11:07:47;;;;;;;0.60;0.60;;;;;;;-149.78;100.00;50455.81;5138584;27;20048;-77
2021/12/12 11:10:19;;;;;;;0.70;0.70;;;;;;;-149.78;100.00;50475.34;5135250;27;20179;-76
2021/12/12 11:12:55;;;;;;;0.67;0.67;;;;;;;-149.78;100.00;50487.09;5136453;27;20057;-76
2021/12/12 11:15:47;;;;;;;1.08;0.85;;;;;;;-149.78;100.00;50471.44;5135637;27;20054;-76
2021/12/12 11:18:19;;;;;;;0.80;0.80;;;;;;;-149.78;100.00;50479.28;5118768;27;20035;-73
2021/12/12 11:21:01;;;;;;;0.68;0.68;;;;;;;-149.78;100.00;50479.28;5135028;27;20067;-73
2021/12/12 11:23:47;;;;;;;;;;;;;;;-149.78;100.00;50440.16;5134177;27;20027;-73
2021/12/12 11:26:20;;;;;;;1.85;0.70;;;;;;;-149.78;100.00;50455.81;5132943;27;19915;-73
2021/12/12 11:28:55;;;;;;;2.47;1.35;;;;;;;-149.78;100.00;50424.50;5134784;27;20031;-73
2021/12/12 11:31:41;;;;;;;2.40;0.80;;;;;;;-149.78;100.00;50467.53;5133673;27;20031;-73
2021/12/12 11:34:08;;;;;;;0.70;0.70;;;;;;;-149.78;100.00;50424.50;5134848;27;20027;-73
2021/12/12 11:37:05;;;;;;;0.70;0.65;;;;;;;-149.78;100.00;50471.44;5134805;27;20050;-73
2021/12/12 11:40:06;;;;;;;1.73;0.90;;;;;;;-149.78;100.00;50436.25;5117792;27;20035;-73
2021/12/12 11:42:43;;;;;;;0.80;0.80;;;;;;;-149.78;100.00;50494.91;5133283;27;20039;-73
2021/12/12 11:45:17;;;;;;;2.30;0.82;;;;;;;-149.78;100.00;50412.78;5134562;27;20063;-73
2021/12/12 11:47:45;;;;;;;0.70;0.70;;;;;;;-149.78;100.00;50463.63;5116136;27;20454;-73
2021/12/12 11:50:41;;;;;;;1.45;0.88;;;;;;;-149.78;100.00;50463.63;5116343;27;20739;-73
2021/12/12 11:53:39;;;;;;;1.35;0.90;;;;;;;-149.78;100.00;50424.50;5134501;27;20122;-73
2021/12/12 11:56:23;;;;;;;0.90;0.82;;;;;;;-149.78;100.00;50447.97;5128917;27;20055;-73